Tropical Cyclones
[Index]
Main Index Home Page Stock Weather Photos Extreme Storms Discussion Storm News and Storm Chasing Reports Tropical Cyclones / Hurricanes / Typhoons Weather Data and Links Wild Fires / Bushfires Weather Observation Techniques Weather Picture Catalogue Tornado Pictures and Reports Stock Video Footage and DVDs for sale
Season 1946-1947 Tropical Cyclone 194712 Track Map
Season 1946-1947 Summaries: [BoM-AU] [JTWC-AU] [JTWC-SIO] [JTWC-SPAC] [JTWC-SH]
<<- Previous TC | JTWC 1946-1947 Season | Next TC ->>

click for intensity scale information  Lat/long Grid: Show Hide

 Date Labels: Show Hide

Joint Typhoon Warning Centre Cyclone Data

Name: 194712
Number: 47 / 4712

02 Feb 1947 00:00 UTC to 11 Feb 1947 18:00 UTC

    date/time    lat    long     hPa   cat  kts
1947-02-02 00   12.7   146.5                              
1947-02-02 06   13.2   147.0                              
1947-02-02 12   13.8   147.3                              
1947-02-02 18   14.5   147.6                              
1947-02-03 00   15.1   147.6                              
1947-02-03 06   15.7   147.4                              
1947-02-03 12   16.3   147.3                              
1947-02-03 18   16.8   147.1                              
1947-02-04 00   17.4   146.9                              
1947-02-04 06   17.9   146.9                              
1947-02-04 12   18.5   147.1                              
1947-02-04 18   19.0   147.5                              
1947-02-05 00   19.2   147.8                              
1947-02-05 06   19.2   148.0                              
1947-02-05 12   19.0   148.1                              
1947-02-05 18   18.6   148.2                              
1947-02-06 00   18.4   148.3                              
1947-02-06 06   18.2   148.2                              
1947-02-06 12   18.0   148.2                              
1947-02-06 18   17.6   148.3                              
1947-02-07 00   17.4   148.3                              
1947-02-07 06   17.3   148.4                              
1947-02-07 12   17.3   148.4                              
1947-02-07 18   17.3   148.4                              
1947-02-08 00   17.3   148.5                              
1947-02-08 06   17.4   148.7                              
1947-02-08 12   17.5   148.8                              
1947-02-08 18   17.7   149.0                              
1947-02-09 00   17.9   149.1                              
1947-02-09 06   18.2   149.3                              
1947-02-09 12   18.5   149.4                              
1947-02-09 18   18.8   149.5                              
1947-02-10 00   19.3   149.6                              
1947-02-10 06   20.3   149.6                              
1947-02-10 12   21.6   149.6                              
1947-02-10 18   22.9   149.8                              
1947-02-11 00   24.0   150.2                              
1947-02-11 06   24.5   150.6                              
1947-02-11 12   24.7   151.2                              
1947-02-11 18   24.9   151.8                              
Winds are 1-min average.

Tropical cyclone tracks developed by Michael Bath using data from the Joint Typhoon Warning Centre Best Tracks and Google Maps.


[Australian Severe Weather index] [Copyright Notice] [Email Contacts] [Search This Site] [Privacy Policy]
Document: tropical_cyclone_194712.htm Updated: 18 September 2016